createdAt,value
2023-04-04T00:00:45.713Z,38.17
2023-04-04T00:03:51.930Z,38.16
2023-04-04T00:06:54.844Z,38.28
2023-04-04T00:09:57.442Z,38.77
2023-04-04T00:12:59.869Z,38.58
2023-04-04T00:16:02.625Z,38.59
2023-04-04T00:19:05.101Z,41.03
2023-04-04T00:22:08.488Z,40.04
2023-04-04T00:25:11.063Z,39.83
2023-04-04T00:28:13.662Z,39.25
2023-04-04T00:31:16.146Z,39.40
2023-04-04T00:34:18.999Z,39.23
2023-04-04T00:37:22.138Z,39.51
2023-04-04T00:40:24.806Z,39.22
2023-04-04T00:43:27.509Z,40.01
2023-04-04T00:46:30.190Z,39.18
2023-04-04T00:49:33.845Z,39.08
2023-04-04T00:52:37.507Z,39.05
2023-04-04T00:55:40.364Z,39.03
2023-04-04T00:58:44.310Z,39.10
2023-04-04T01:01:46.999Z,39.25
2023-04-04T01:04:50.493Z,39.41
2023-04-04T01:07:53.287Z,40.14
2023-04-04T01:10:56.278Z,39.40
2023-04-04T01:13:58.642Z,39.55
2023-04-04T01:17:03.314Z,41.92
2023-04-04T01:20:10.691Z,42.13
2023-04-04T01:23:14.519Z,40.89
2023-04-04T01:26:18.050Z,40.93
2023-04-04T01:29:21.145Z,39.96
2023-04-04T01:32:48.944Z,40.33
2023-04-04T01:36:26.009Z,39.54
2023-04-04T01:39:35.504Z,40.01
2023-04-04T01:42:40.114Z,41.35
2023-04-04T01:45:42.803Z,40.09
2023-04-04T01:48:46.847Z,39.92
2023-04-04T01:51:52.904Z,40.26
2023-04-04T01:54:55.834Z,40.01
2023-04-04T01:57:58.173Z,40.04
2023-04-04T02:01:01.318Z,40.12
2023-04-04T02:04:04.504Z,40.60
2023-04-04T02:07:08.220Z,40.64
2023-04-04T02:10:12.214Z,40.79
2023-04-04T02:13:14.705Z,40.79
2023-04-04T02:16:18.248Z,41.16
2023-04-04T02:19:20.665Z,41.37
2023-04-04T02:22:23.707Z,41.74
2023-04-04T02:25:26.202Z,41.78
2023-04-04T02:28:29.103Z,42.06
2023-04-04T02:31:31.511Z,41.88
2023-04-04T02:34:34.682Z,42.06
2023-04-04T02:37:37.394Z,42.58
2023-04-04T02:40:42.685Z,42.95
2023-04-04T02:43:45.488Z,43.87
2023-04-04T02:46:48.450Z,44.11
2023-04-04T02:49:51.731Z,42.49
2023-04-04T02:52:59.768Z,42.48
2023-04-04T02:56:05.341Z,42.73
2023-04-04T02:59:08.432Z,42.95
2023-04-04T03:02:11.017Z,43.07
2023-04-04T03:05:13.844Z,43.12
2023-04-04T03:08:16.762Z,43.20
2023-04-04T03:11:21.453Z,43.51
2023-04-04T03:14:26.583Z,43.22
2023-04-04T03:17:30.059Z,43.23
2023-04-04T03:20:33.163Z,43.42
2023-04-04T03:23:35.829Z,43.27
2023-04-04T03:26:39.107Z,43.46
2023-04-04T03:29:42.434Z,43.56
2023-04-04T03:32:45.250Z,43.90
2023-04-04T03:35:48.097Z,44.58
2023-04-04T03:38:50.483Z,45.31
2023-04-04T03:41:53.067Z,43.62
2023-04-04T03:44:55.371Z,43.09
2023-04-04T03:48:00.514Z,44.66
2023-04-04T03:51:05.536Z,44.65
2023-04-04T03:54:08.170Z,44.59
2023-04-04T03:57:10.584Z,44.44
2023-04-04T04:00:13.744Z,43.40
2023-04-04T04:03:17.332Z,42.93
2023-04-04T04:06:21.519Z,43.37
2023-04-04T04:09:23.879Z,43.24
2023-04-04T04:12:26.485Z,44.83
2023-04-04T04:15:28.778Z,45.10
2023-04-04T04:18:32.851Z,44.05
2023-04-04T04:21:35.687Z,44.71
2023-04-04T04:24:38.288Z,44.08
2023-04-04T04:27:41.535Z,44.05
2023-04-04T04:30:44.572Z,44.64
2023-04-04T04:33:48.748Z,44.50
2023-04-04T04:36:53.855Z,43.21
2023-04-04T04:39:57.320Z,42.88
2023-04-04T04:43:01.444Z,44.96
2023-04-04T04:46:03.936Z,44.71
2023-04-04T04:49:07.309Z,44.17
2023-04-04T04:52:09.692Z,44.55
2023-04-04T04:55:13.425Z,43.40
2023-04-04T04:58:17.546Z,43.54
2023-04-04T05:01:21.480Z,43.67
2023-04-04T05:04:24.124Z,44.30
2023-04-04T05:07:29.578Z,43.30
2023-04-04T05:10:32.011Z,42.99
2023-04-04T05:13:36.014Z,43.25
2023-04-04T05:16:38.354Z,42.49
2023-04-04T05:19:41.870Z,43.40
2023-04-04T05:22:45.377Z,43.79
2023-04-04T05:25:50.084Z,42.74
2023-04-04T05:28:52.362Z,43.40
2023-04-04T05:31:55.830Z,43.51
2023-04-04T05:34:58.503Z,43.32
2023-04-04T05:38:03.099Z,42.15
2023-04-04T05:41:05.762Z,44.02
2023-04-04T05:44:08.428Z,42.07
2023-04-04T05:47:10.893Z,42.51
2023-04-04T05:50:14.689Z,42.29
2023-04-04T05:53:17.135Z,44.99
2023-04-04T05:56:20.145Z,43.04
2023-04-04T05:59:22.934Z,42.74
2023-04-04T06:02:26.389Z,42.53
2023-04-04T06:05:29.436Z,42.60
2023-04-04T06:08:35.332Z,42.22
2023-04-04T06:11:43.420Z,41.98
2023-04-04T06:14:46.721Z,41.94
2023-04-04T06:17:50.864Z,41.95
2023-04-04T06:20:53.350Z,42.15
2023-04-04T06:23:56.372Z,42.32
2023-04-04T06:26:58.668Z,41.88
2023-04-04T06:30:01.445Z,41.95
2023-04-04T06:33:05.255Z,41.54
2023-04-04T06:36:09.025Z,42.07
2023-04-04T06:39:11.632Z,40.90
2023-04-04T06:42:14.411Z,40.12
2023-04-04T06:45:21.747Z,40.32
2023-04-04T06:48:25.391Z,39.65
2023-04-04T06:51:27.829Z,39.18
2023-04-04T06:54:30.510Z,39.18
2023-04-04T06:57:33.124Z,38.61
2023-04-04T07:00:36.174Z,39.37
2023-04-04T07:03:38.625Z,38.61
2023-04-04T07:06:42.239Z,38.51
2023-04-04T07:09:44.685Z,38.90
2023-04-04T07:12:47.455Z,38.71
2023-04-04T07:15:50.176Z,38.15
2023-04-04T07:18:55.847Z,38.37
2023-04-04T07:21:58.230Z,38.15
2023-04-04T07:25:00.874Z,38.30
2023-04-04T07:28:12.330Z,38.03
2023-04-04T07:31:15.775Z,38.04
2023-04-04T07:34:18.179Z,37.95
2023-04-04T07:37:21.982Z,37.57
2023-04-04T07:40:24.444Z,37.59
2023-04-04T07:43:27.412Z,36.93
2023-04-04T07:46:30.113Z,36.66
2023-04-04T07:49:34.149Z,36.64
2023-04-04T07:52:37.368Z,35.88
2023-04-04T07:55:40.102Z,35.53
2023-04-04T07:58:42.441Z,35.37
2023-04-04T08:01:46.216Z,34.67
2023-04-04T08:04:49.073Z,34.08
2023-04-04T08:07:51.533Z,34.55
2023-04-04T08:10:54.189Z,34.04
2023-04-04T08:14:00.488Z,34.61
2023-04-04T08:17:12.323Z,34.20
2023-04-04T08:20:15.598Z,34.10
2023-04-04T08:23:20.602Z,33.29
2023-04-04T08:26:24.706Z,33.00
2023-04-04T08:29:29.095Z,32.85
2023-04-04T08:32:32.290Z,32.84
2023-04-04T08:35:35.114Z,33.04
2023-04-04T08:38:37.437Z,32.88
2023-04-04T08:41:45.466Z,32.70
2023-04-04T08:44:52.916Z,32.16
2023-04-04T08:47:57.832Z,32.39
2023-04-04T08:51:01.875Z,31.68
2023-04-04T08:54:05.824Z,31.32
2023-04-04T08:57:08.571Z,31.13
2023-04-04T09:00:12.100Z,31.29
2023-04-04T09:03:31.258Z,31.25
2023-04-04T09:06:34.609Z,31.05
2023-04-04T09:09:41.099Z,31.24
2023-04-04T09:12:47.673Z,30.79
2023-04-04T09:15:54.935Z,30.97
2023-04-04T09:18:57.682Z,30.85
2023-04-04T09:22:00.487Z,30.98
2023-04-04T09:25:08.527Z,30.89
2023-04-04T09:28:17.026Z,31.26
2023-04-04T09:31:26.539Z,30.37
2023-04-04T09:34:31.232Z,30.38
2023-04-04T09:37:37.238Z,30.39
2023-04-04T09:40:42.247Z,30.06
2023-04-04T09:43:48.626Z,29.91
2023-04-04T09:46:54.412Z,29.88
2023-04-04T09:50:01.436Z,30.92
2023-04-04T09:53:04.287Z,29.73
2023-04-04T09:56:07.807Z,30.50
2023-04-04T09:59:10.289Z,29.35
2023-04-04T10:02:13.980Z,28.87
2023-04-04T10:05:18.108Z,28.43
2023-04-04T10:08:23.956Z,28.17
2023-04-04T10:11:34.353Z,28.23
2023-04-04T10:14:38.305Z,28.20
2023-04-04T10:17:42.155Z,27.96
2023-04-04T10:20:45.756Z,27.60
2023-04-04T10:23:49.126Z,27.64
2023-04-04T10:26:51.724Z,30.12
2023-04-04T10:29:55.020Z,30.21
2023-04-04T10:33:12.935Z,30.70
2023-04-04T10:36:22.561Z,30.51
2023-04-04T10:39:36.691Z,36.53
2023-04-04T10:42:47.218Z,30.58
2023-04-04T10:46:31.963Z,30.01
2023-04-04T10:49:45.410Z,30.52
2023-04-04T10:52:50.649Z,30.00
2023-04-04T10:55:54.055Z,29.41
2023-04-04T10:59:13.858Z,29.44
2023-04-04T11:02:18.342Z,28.82
2023-04-04T11:05:33.054Z,28.13
2023-04-04T11:08:40.194Z,30.26
2023-04-04T11:12:22.841Z,28.22
2023-04-04T11:15:26.501Z,27.39
2023-04-04T11:18:33.712Z,26.50
2023-04-04T11:21:39.377Z,25.99
2023-04-04T11:24:46.164Z,25.91
2023-04-04T11:27:51.117Z,29.34
2023-04-04T11:31:24.497Z,25.43
2023-04-04T11:34:35.855Z,25.33
2023-04-04T11:38:02.135Z,25.11
2023-04-04T11:41:09.805Z,25.33
2023-04-04T11:44:12.479Z,25.63
2023-04-04T11:47:19.634Z,24.41
2023-04-04T11:50:22.179Z,25.49
2023-04-04T11:53:31.836Z,24.74
2023-04-04T11:56:36.730Z,24.72
2023-04-04T11:59:46.278Z,24.58
2023-04-04T12:03:22.638Z,24.07
2023-04-04T12:06:28.003Z,23.86
2023-04-04T12:09:33.042Z,23.69
2023-04-04T12:12:46.254Z,23.56
2023-04-04T12:15:51.366Z,23.47
2023-04-04T12:19:00.912Z,23.46
2023-04-04T12:22:05.596Z,23.75
2023-04-04T12:25:13.170Z,23.72
2023-04-04T12:28:27.085Z,24.46
2023-04-04T12:31:33.800Z,24.87
2023-04-04T12:34:48.835Z,24.22
2023-04-04T12:38:07.294Z,24.01
2023-04-04T12:41:21.838Z,25.67
2023-04-04T12:44:30.514Z,24.38
2023-04-04T12:47:34.650Z,24.12
2023-04-04T12:50:58.774Z,24.12
2023-04-04T12:54:07.359Z,24.23
2023-04-04T12:57:14.553Z,24.12
2023-04-04T13:00:22.774Z,25.76
2023-04-04T13:03:28.636Z,24.92
2023-04-04T13:06:35.813Z,24.94
2023-04-04T13:10:27.859Z,25.73
2023-04-04T13:17:18.895Z,25.66
2023-04-04T13:20:29.141Z,25.55
2023-04-04T13:23:45.647Z,26.93
2023-04-04T13:26:53.142Z,25.62
2023-04-04T13:30:11.974Z,25.32
2023-04-04T13:33:22.717Z,26.33
2023-04-04T13:37:41.745Z,26.00
2023-04-04T13:40:52.711Z,25.90
2023-04-04T13:44:00.317Z,27.55
2023-04-04T13:47:05.525Z,26.26
2023-04-04T13:50:13.604Z,27.46
2023-04-04T13:53:21.391Z,26.93
2023-04-04T13:56:53.519Z,25.73
2023-04-04T14:00:26.390Z,26.00
2023-04-04T14:03:31.777Z,27.55
2023-04-04T14:06:35.547Z,26.19
2023-04-04T14:09:39.949Z,26.44
2023-04-04T14:12:49.282Z,27.78
2023-04-04T14:15:52.761Z,26.76
2023-04-04T14:18:55.653Z,26.18
2023-04-04T14:22:11.017Z,26.29
2023-04-04T14:25:16.782Z,26.34
2023-04-04T14:28:19.940Z,26.66
2023-04-04T14:31:22.800Z,28.20
2023-04-04T14:34:27.993Z,28.42
2023-04-04T14:37:30.608Z,28.31
2023-04-04T14:40:40.377Z,27.00
2023-04-04T14:43:54.669Z,28.03
2023-04-04T14:47:14.256Z,28.24
2023-04-04T14:50:24.924Z,27.48
2023-04-04T14:53:28.274Z,27.06
2023-04-04T14:56:41.363Z,27.03
2023-04-04T14:59:47.064Z,28.24
2023-04-04T15:02:50.782Z,27.04
2023-04-04T15:05:53.676Z,27.69
2023-04-04T15:08:58.944Z,29.24
2023-04-04T15:12:03.213Z,27.94
2023-04-04T15:15:06.423Z,27.72
2023-04-04T15:18:08.955Z,28.50
2023-04-04T15:21:11.884Z,28.07
2023-04-04T15:24:14.413Z,28.54
2023-04-04T15:27:18.781Z,28.45
2023-04-04T15:30:21.270Z,29.03
2023-04-04T15:33:24.012Z,30.31
2023-04-04T15:36:28.863Z,30.86
2023-04-04T15:39:37.082Z,30.91
2023-04-04T15:42:46.591Z,29.12
2023-04-04T15:45:49.445Z,29.08
2023-04-04T15:48:52.434Z,30.46
2023-04-04T15:51:56.774Z,29.04
2023-04-04T15:54:59.354Z,30.32
2023-04-04T15:58:02.313Z,29.79
2023-04-04T16:01:06.462Z,29.63
2023-04-04T16:04:10.329Z,30.11
2023-04-04T16:07:12.810Z,30.07
2023-04-04T16:10:15.973Z,31.42
2023-04-04T16:13:18.643Z,30.33
2023-04-04T16:16:22.838Z,30.27
2023-04-04T16:19:28.768Z,30.51
2023-04-04T16:22:33.344Z,30.45
2023-04-04T16:25:35.868Z,30.45
2023-04-04T16:28:38.939Z,31.00
2023-04-04T16:31:41.437Z,32.61
2023-04-04T16:34:48.703Z,35.30
2023-04-04T16:37:51.383Z,31.77
2023-04-04T16:40:54.874Z,31.73
2023-04-04T16:43:59.774Z,31.43
2023-04-04T16:47:02.616Z,31.82
2023-04-04T16:50:06.541Z,32.98
2023-04-04T16:53:09.952Z,32.95
2023-04-04T16:56:12.600Z,31.39
2023-04-04T16:59:17.163Z,32.74
2023-04-04T17:02:20.036Z,32.02
2023-04-04T17:05:22.721Z,31.31
2023-04-04T17:08:25.634Z,31.41
2023-04-04T17:11:28.895Z,32.66
2023-04-04T17:14:31.366Z,33.49
2023-04-04T17:17:34.104Z,32.19
2023-04-04T17:20:38.204Z,31.67
2023-04-04T17:23:41.051Z,31.75
2023-04-04T17:26:45.979Z,32.09
2023-04-04T17:29:50.802Z,32.00
2023-04-04T17:32:54.452Z,32.68
2023-04-04T17:35:57.138Z,32.85
2023-04-04T17:38:59.333Z,32.72
2023-04-04T17:42:02.216Z,32.50
2023-04-04T17:45:06.809Z,32.43
2023-04-04T17:48:12.373Z,32.37
2023-04-04T17:51:14.785Z,32.19
2023-04-04T17:54:17.920Z,32.29
2023-04-04T17:57:20.668Z,32.30
2023-04-04T18:00:24.154Z,34.23
2023-04-04T18:03:28.024Z,32.62
2023-04-04T18:06:32.192Z,32.58
2023-04-04T18:09:35.052Z,32.60
2023-04-04T18:12:37.900Z,32.67
2023-04-04T18:15:41.242Z,32.84
2023-04-04T18:18:43.560Z,32.89
2023-04-04T18:21:59.642Z,32.88
2023-04-04T18:25:02.144Z,32.88
2023-04-04T18:28:05.008Z,33.10
2023-04-04T18:31:08.686Z,33.12
2023-04-04T18:34:15.036Z,33.59
2023-04-04T18:37:17.243Z,33.64
2023-04-04T18:40:19.963Z,33.80
2023-04-04T18:43:23.250Z,33.94
2023-04-04T18:46:25.949Z,33.95
2023-04-04T18:49:28.307Z,34.24
2023-04-04T18:52:31.183Z,34.37
2023-04-04T18:55:33.581Z,34.67
2023-04-04T18:58:37.088Z,34.44
2023-04-04T19:01:39.498Z,34.50
2023-04-04T19:04:43.491Z,34.74
2023-04-04T19:07:47.624Z,35.92
2023-04-04T19:10:51.191Z,35.25
2023-04-04T19:13:53.638Z,35.25
2023-04-04T19:16:56.592Z,35.32
2023-04-04T19:19:59.134Z,35.66
2023-04-04T19:23:02.065Z,35.62
2023-04-04T19:26:04.508Z,35.63
2023-04-04T19:29:08.094Z,35.83
2023-04-04T19:32:19.495Z,35.81
2023-04-04T19:35:55.751Z,36.62
2023-04-04T19:38:58.263Z,36.07
2023-04-04T19:42:02.107Z,36.02
2023-04-04T19:45:12.851Z,36.21
2023-04-04T19:48:50.622Z,37.37
2023-04-04T19:51:55.428Z,37.13
2023-04-04T19:54:58.078Z,37.70
2023-04-04T19:58:01.470Z,36.57
2023-04-04T20:01:06.061Z,36.46
2023-04-04T20:04:10.427Z,36.39
2023-04-04T20:07:13.956Z,36.50
2023-04-04T20:10:36.607Z,36.39
2023-04-04T20:13:40.566Z,36.54
2023-04-04T20:16:43.400Z,36.73
2023-04-04T20:19:45.977Z,36.95
2023-04-04T20:22:48.797Z,37.12
2023-04-04T20:25:52.497Z,37.21
2023-04-04T20:28:55.121Z,36.84
2023-04-04T20:32:04.910Z,37.14
2023-04-04T20:35:08.096Z,37.05
2023-04-04T20:38:10.639Z,37.19
2023-04-04T20:41:23.267Z,37.26
2023-04-04T20:44:26.847Z,37.29
2023-04-04T20:47:53.586Z,37.20
2023-04-04T20:50:56.841Z,37.29
2023-04-04T20:54:01.755Z,37.27
2023-04-04T20:57:04.545Z,37.59
2023-04-04T21:00:30.068Z,37.69
2023-04-04T21:03:35.634Z,38.02
2023-04-04T21:06:39.218Z,38.08
2023-04-04T21:09:41.531Z,38.21
2023-04-04T21:12:44.106Z,38.14
2023-04-04T21:15:48.552Z,38.16
2023-04-04T21:18:59.445Z,38.10
2023-04-04T21:22:01.872Z,38.35
2023-04-04T21:25:18.782Z,38.27
2023-04-04T21:28:21.561Z,38.35
2023-04-04T21:31:26.330Z,38.21
2023-04-04T21:34:29.439Z,38.42
2023-04-04T21:37:32.110Z,38.51
2023-04-04T21:40:35.967Z,38.43
2023-04-04T21:43:38.444Z,38.55
2023-04-04T21:46:42.020Z,38.51
2023-04-04T21:49:44.548Z,39.10
2023-04-04T21:52:46.739Z,39.76
2023-04-04T21:55:49.359Z,38.93
2023-04-04T21:58:51.648Z,38.72
2023-04-04T22:01:54.278Z,38.71
2023-04-04T22:04:57.435Z,39.12
2023-04-04T22:07:59.827Z,39.05
2023-04-04T22:11:04.074Z,38.99
2023-04-04T22:14:07.408Z,39.19
2023-04-04T22:17:23.692Z,39.15
2023-04-04T22:20:25.906Z,39.54
2023-04-04T22:23:35.280Z,39.25
2023-04-04T22:26:37.715Z,39.65
2023-04-04T22:29:40.351Z,39.98
2023-04-04T22:32:44.014Z,40.01
2023-04-04T22:35:46.616Z,40.24
2023-04-04T22:38:56.316Z,40.32
2023-04-04T22:42:00.045Z,41.52
2023-04-04T22:45:02.396Z,41.66
2023-04-04T22:48:05.124Z,40.78
2023-04-04T22:51:07.407Z,40.98
2023-04-04T22:54:10.210Z,40.86
2023-04-04T22:57:13.945Z,40.21
2023-04-04T23:00:16.841Z,40.63
2023-04-04T23:03:19.050Z,40.30
2023-04-04T23:06:22.196Z,42.24
2023-04-04T23:09:24.764Z,42.90
2023-04-04T23:12:27.590Z,41.00
2023-04-04T23:15:32.323Z,41.11
2023-04-04T23:18:34.936Z,41.09
2023-04-04T23:21:37.836Z,42.85
2023-04-04T23:24:41.679Z,42.25
2023-04-04T23:27:43.990Z,42.96
2023-04-04T23:30:46.640Z,41.93
2023-04-04T23:33:49.658Z,41.90
2023-04-04T23:36:52.314Z,42.34
2023-04-04T23:39:54.859Z,42.09
2023-04-04T23:42:57.440Z,41.88
2023-04-04T23:46:00.455Z,42.15
2023-04-04T23:49:06.079Z,42.14
2023-04-04T23:52:08.441Z,42.07
2023-04-04T23:55:11.246Z,41.20
2023-04-04T23:58:13.609Z,41.64
